Main page
METAR-TAF:

METAR-TAF

Airports :

RAF Coningsby

Coningsby, England

latitude: 53-05N, longitude: 000-10W, elevation: 7 m

Current weather observation

The report was made 1 hour and 4 minutes ago, at 06:50 UTC
Wind 9 kt from the South/Southwest
Temperature 15°C
Humidity 82%
Pressure 1000 hPa
Visibility 10 km or more
no clouds below 1500 m and no cumulonimbus

METAR: EGXC 180650Z 21009KT CAVOK 15/12 Q1000 RMK BLU

Time: 08:54 (07:54 UTC)

Forecast

The report was made 3 hours and 26 minutes ago, at 04:28 UTC
Forecast valid from 18 at 06 UTC to 18 at 24 UTC
Wind 10 kt from the South/Southwest
Visibility 10 km or more
Scattered clouds at a height of 3000 ft
Becoming
from 18 at 09 UTC to 18 at 11 UTC
Wind 15 kt from the West/Southwest with gusts up to 25 kt
Becoming
from 18 at 18 UTC to 18 at 20 UTC
Wind 10 kt from the West/Southwest

TAF: EGXC 180428Z 1806/1824 21010KT 9999 SCT030 BECMG 1809/1811 25015G25KT BECMG 1818/1820 24010KT

Weather observations and forecasts of more than 4000 airports (METAR and TAF reports).

The available stations are represented by yellow and red dots on the map.

Hover mouse over dot to see the name of the station.

Then click to see weather observations and forecasts.

To change the map : click on the green buttons with a black cross to zoom in, on the green button with a dash to zoom out, or on the green arrows for adjacent maps.


METAR-TAF: